IBE303 LEMD-MMMX
Flight info
| Callsign | IBE303 |
|---|---|
| Flight time | N/A |
| Altitude | 32000 |
| Route | ZMR7L ZMR N733 DESAT DCT STG DCT MUDOS/M083F320 DCT 44N020W 43N030W 41N040W 38N050W 34N060W DCT LAZEY DCT BALTN M329 GRATX/N0495F320 Y642 LULLS Y196 CANOA UM346 AXOMU UR522 PAZ UT154 ENAGA ENAGA3B |
| Aircraft | A346/H-SDE2E3FGHIJ3J4J5M1RWXY/LB1D1 |
Departure
| Time | 2026-05-06 09:19 |
|---|---|
| Airport | Adolfo Suárez Madrid–Barajas Airport (LEMD) |
Arrival
| Time | N/A |
|---|---|
| Airport | Mexico City Benito Juárez International Airport (MMMX) |
| Time | Latitude | Longitude | Altitude | Speed | Heading |
|---|---|---|---|---|---|
| 2026-05-06 08:58 | 40.49145 | -3.56635 | 1979 ft | 0 kts | 271° |
| 2026-05-06 09:05 | 40.49145 | -3.56633 | 1979 ft | 2 kts | 271° |
| 2026-05-06 09:05 | 40.49143 | -3.56605 | 1979 ft | 3 kts | 280° |
| 2026-05-06 09:05 | 40.49137 | -3.56577 | 1980 ft | 3 kts | 296° |
| 2026-05-06 09:05 | 40.49126 | -3.56555 | 1979 ft | 3 kts | 318° |
| 2026-05-06 09:06 | 40.49111 | -3.56544 | 1979 ft | 3 kts | 348° |
| 2026-05-06 09:06 | 40.49101 | -3.56542 | 1978 ft | 0 kts | 359° |
| 2026-05-06 09:10 | 40.49108 | -3.56542 | 1978 ft | 3 kts | 359° |
| 2026-05-06 09:10 | 40.49136 | -3.56542 | 1978 ft | 5 kts | 359° |
| 2026-05-06 09:11 | 40.49250 | -3.56543 | 1978 ft | 24 kts | 359° |
| 2026-05-06 09:11 | 40.49406 | -3.56545 | 1978 ft | 22 kts | 360° |
| 2026-05-06 09:11 | 40.49561 | -3.56546 | 1981 ft | 23 kts | 360° |
| 2026-05-06 09:11 | 40.49714 | -3.56547 | 1980 ft | 22 kts | 360° |
| 2026-05-06 09:12 | 40.49853 | -3.56548 | 1979 ft | 11 kts | 360° |
| 2026-05-06 09:12 | 40.49926 | -3.56523 | 1980 ft | 11 kts | 52° |
| 2026-05-06 09:12 | 40.49888 | -3.56460 | 1978 ft | 12 kts | 173° |
| 2026-05-06 09:12 | 40.49801 | -3.56456 | 1978 ft | 13 kts | 178° |
| 2026-05-06 09:13 | 40.49708 | -3.56452 | 1976 ft | 13 kts | 178° |
| 2026-05-06 09:13 | 40.49613 | -3.56451 | 1975 ft | 14 kts | 179° |
| 2026-05-06 09:13 | 40.49516 | -3.56449 | 1975 ft | 14 kts | 179° |
| 2026-05-06 09:13 | 40.49416 | -3.56448 | 1979 ft | 14 kts | 180° |
| 2026-05-06 09:14 | 40.49317 | -3.56449 | 1976 ft | 14 kts | 181° |
| 2026-05-06 09:14 | 40.49217 | -3.56450 | 1975 ft | 14 kts | 179° |
| 2026-05-06 09:14 | 40.49116 | -3.56449 | 1975 ft | 15 kts | 179° |
| 2026-05-06 09:14 | 40.49014 | -3.56447 | 1979 ft | 15 kts | 179° |
| 2026-05-06 09:15 | 40.48921 | -3.56447 | 1978 ft | 12 kts | 180° |
| 2026-05-06 09:15 | 40.48870 | -3.56509 | 1981 ft | 11 kts | 255° |
| 2026-05-06 09:15 | 40.48863 | -3.56604 | 1980 ft | 10 kts | 267° |
| 2026-05-06 09:15 | 40.48861 | -3.56725 | 1982 ft | 17 kts | 270° |
| 2026-05-06 09:16 | 40.48862 | -3.56907 | 1985 ft | 20 kts | 270° |
| 2026-05-06 09:16 | 40.48861 | -3.57063 | 1988 ft | 15 kts | 269° |
| 2026-05-06 09:16 | 40.48872 | -3.57190 | 1992 ft | 13 kts | 308° |
| 2026-05-06 09:16 | 40.48957 | -3.57227 | 1991 ft | 14 kts | 354° |
| 2026-05-06 09:17 | 40.49040 | -3.57278 | 1994 ft | 13 kts | 319° |
| 2026-05-06 09:17 | 40.49106 | -3.57363 | 1995 ft | 13 kts | 314° |
| 2026-05-06 09:17 | 40.49177 | -3.57441 | 1994 ft | 15 kts | 336° |
| 2026-05-06 09:17 | 40.49356 | -3.57453 | 1991 ft | 46 kts | 0° |
| 2026-05-06 09:18 | 40.49861 | -3.57456 | 1996 ft | 97 kts | 360° |
| 2026-05-06 09:18 | 40.50697 | -3.57462 | 2003 ft | 141 kts | 360° |
| 2026-05-06 09:18 | 40.51816 | -3.57474 | 2009 ft | 179 kts | 359° |
| 2026-05-06 09:18 | 40.53140 | -3.57494 | 2163 ft | 196 kts | 0° |
| 2026-05-06 09:19 | 40.54513 | -3.57517 | 2646 ft | 199 kts | 0° |
| 2026-05-06 09:19 | 40.55873 | -3.57813 | 3125 ft | 200 kts | 329° |
| 2026-05-06 09:19 | 40.56748 | -3.59146 | 3608 ft | 199 kts | 285° |
| 2026-05-06 09:19 | 40.57056 | -3.60934 | 3968 ft | 205 kts | 291° |
| 2026-05-06 09:20 | 40.57884 | -3.62481 | 4180 ft | 215 kts | 324° |
| 2026-05-06 09:20 | 40.59193 | -3.63510 | 4472 ft | 223 kts | 332° |
| 2026-05-06 09:20 | 40.60548 | -3.64537 | 4911 ft | 226 kts | 328° |
| 2026-05-06 09:20 | 40.61853 | -3.65689 | 5384 ft | 226 kts | 324° |
| 2026-05-06 09:21 | 40.63115 | -3.66927 | 5911 ft | 226 kts | 324° |
| 2026-05-06 09:21 | 40.64520 | -3.67752 | 6365 ft | 228 kts | 352° |
| 2026-05-06 09:21 | 40.66135 | -3.67681 | 6644 ft | 239 kts | 6° |
| 2026-05-06 09:21 | 40.67836 | -3.67400 | 6868 ft | 253 kts | 7° |
| 2026-05-06 09:22 | 40.69672 | -3.67092 | 7141 ft | 267 kts | 6° |
| 2026-05-06 09:22 | 40.71557 | -3.66796 | 7504 ft | 276 kts | 6° |
| 2026-05-06 09:22 | 40.73476 | -3.66509 | 8073 ft | 279 kts | 6° |
| 2026-05-06 09:22 | 40.75410 | -3.66231 | 8657 ft | 280 kts | 3° |
| 2026-05-06 09:23 | 40.77335 | -3.66526 | 9180 ft | 281 kts | 335° |
| 2026-05-06 09:23 | 40.78921 | -3.67993 | 9713 ft | 281 kts | 308° |
| 2026-05-06 09:23 | 40.79960 | -3.70190 | 10230 ft | 284 kts | 298° |
| 2026-05-06 09:23 | 40.80898 | -3.72507 | 10486 ft | 296 kts | 298° |
| 2026-05-06 09:24 | 40.81895 | -3.74953 | 10713 ft | 308 kts | 298° |
| 2026-05-06 09:24 | 40.82940 | -3.77493 | 10962 ft | 320 kts | 298° |
| 2026-05-06 09:24 | 40.84022 | -3.80103 | 11360 ft | 326 kts | 299° |
| 2026-05-06 09:24 | 40.85120 | -3.82744 | 11883 ft | 328 kts | 299° |
| 2026-05-06 09:25 | 40.86221 | -3.85393 | 12391 ft | 330 kts | 299° |
| 2026-05-06 09:25 | 40.87333 | -3.88066 | 12918 ft | 332 kts | 300° |
| 2026-05-06 09:25 | 40.88450 | -3.90751 | 13456 ft | 334 kts | 300° |
| 2026-05-06 09:25 | 40.89563 | -3.93420 | 13924 ft | 337 kts | 300° |
| 2026-05-06 09:26 | 40.90701 | -3.96155 | 14351 ft | 340 kts | 300° |
| 2026-05-06 09:26 | 40.91844 | -3.98902 | 14850 ft | 340 kts | 299° |
| 2026-05-06 09:26 | 40.92987 | -4.01650 | 15314 ft | 342 kts | 299° |
| 2026-05-06 09:26 | 40.94135 | -4.04419 | 15788 ft | 343 kts | 299° |
| 2026-05-06 09:27 | 40.95284 | -4.07194 | 16263 ft | 344 kts | 299° |
| 2026-05-06 09:27 | 40.96436 | -4.09978 | 16727 ft | 345 kts | 299° |
| 2026-05-06 09:27 | 40.97593 | -4.12778 | 17214 ft | 346 kts | 299° |
| 2026-05-06 09:27 | 40.98751 | -4.15582 | 17692 ft | 347 kts | 299° |
| 2026-05-06 09:28 | 40.99895 | -4.18354 | 18148 ft | 349 kts | 299° |
| 2026-05-06 09:28 | 41.01057 | -4.21173 | 18560 ft | 350 kts | 298° |
| 2026-05-06 09:28 | 41.02177 | -4.24043 | 18958 ft | 351 kts | 296° |
| 2026-05-06 09:28 | 41.03265 | -4.26953 | 19352 ft | 352 kts | 296° |
| 2026-05-06 09:29 | 41.04347 | -4.29865 | 19754 ft | 353 kts | 296° |
| 2026-05-06 09:29 | 41.05433 | -4.32794 | 20168 ft | 354 kts | 296° |
| 2026-05-06 09:29 | 41.06519 | -4.35728 | 20533 ft | 355 kts | 295° |
| 2026-05-06 09:29 | 41.07612 | -4.38682 | 20914 ft | 357 kts | 295° |
| 2026-05-06 09:30 | 41.08691 | -4.41596 | 21294 ft | 357 kts | 295° |
| 2026-05-06 09:30 | 41.09789 | -4.44564 | 21692 ft | 358 kts | 295° |
| 2026-05-06 09:30 | 41.10888 | -4.47537 | 22068 ft | 359 kts | 295° |
| 2026-05-06 09:30 | 41.11990 | -4.50525 | 22441 ft | 360 kts | 295° |
| 2026-05-06 09:31 | 41.13095 | -4.53520 | 22819 ft | 361 kts | 294° |
| 2026-05-06 09:31 | 41.14201 | -4.56523 | 23174 ft | 362 kts | 294° |
| 2026-05-06 09:31 | 41.15306 | -4.59535 | 23521 ft | 364 kts | 295° |
| 2026-05-06 09:31 | 41.16419 | -4.62569 | 23792 ft | 366 kts | 295° |
| 2026-05-06 09:32 | 41.17523 | -4.65577 | 24055 ft | 368 kts | 295° |
| 2026-05-06 09:32 | 41.18647 | -4.68640 | 24332 ft | 369 kts | 295° |
| 2026-05-06 09:32 | 41.19775 | -4.71717 | 24608 ft | 371 kts | 294° |
| 2026-05-06 09:32 | 41.20907 | -4.74808 | 24899 ft | 372 kts | 294° |
| 2026-05-06 09:33 | 41.22041 | -4.77910 | 25167 ft | 374 kts | 294° |
| 2026-05-06 09:33 | 41.23178 | -4.81022 | 25431 ft | 375 kts | 294° |
| 2026-05-06 09:33 | 41.24321 | -4.84155 | 25696 ft | 376 kts | 294° |
| 2026-05-06 09:33 | 41.25461 | -4.87298 | 25961 ft | 379 kts | 295° |
| 2026-05-06 09:34 | 41.26599 | -4.90424 | 26159 ft | 382 kts | 295° |
| 2026-05-06 09:34 | 41.27759 | -4.93606 | 26403 ft | 383 kts | 295° |
| 2026-05-06 09:34 | 41.28925 | -4.96809 | 26651 ft | 385 kts | 295° |
| 2026-05-06 09:34 | 41.30097 | -5.00040 | 26791 ft | 391 kts | 295° |
| 2026-05-06 09:35 | 41.31288 | -5.03324 | 26945 ft | 397 kts | 295° |
| 2026-05-06 09:35 | 41.32497 | -5.06662 | 27061 ft | 403 kts | 295° |
| 2026-05-06 09:35 | 41.33725 | -5.10054 | 27196 ft | 409 kts | 295° |
| 2026-05-06 09:35 | 41.34970 | -5.13501 | 27323 ft | 415 kts | 295° |
| 2026-05-06 09:36 | 41.36214 | -5.16950 | 27438 ft | 421 kts | 295° |
| 2026-05-06 09:36 | 41.37491 | -5.20493 | 27567 ft | 427 kts | 295° |
| 2026-05-06 09:36 | 41.38785 | -5.24091 | 27690 ft | 433 kts | 295° |
| 2026-05-06 09:36 | 41.40095 | -5.27736 | 27802 ft | 438 kts | 295° |
| 2026-05-06 09:37 | 41.41418 | -5.31422 | 27919 ft | 444 kts | 295° |
| 2026-05-06 09:37 | 41.42756 | -5.35158 | 28063 ft | 448 kts | 295° |
| 2026-05-06 09:37 | 41.44105 | -5.38932 | 28307 ft | 451 kts | 295° |
| 2026-05-06 09:37 | 41.45452 | -5.42706 | 28659 ft | 451 kts | 295° |
| 2026-05-06 09:38 | 41.46784 | -5.46430 | 29099 ft | 449 kts | 295° |
| 2026-05-06 09:38 | 41.48123 | -5.50180 | 29562 ft | 446 kts | 295° |
| 2026-05-06 09:38 | 41.49451 | -5.53909 | 30022 ft | 444 kts | 295° |
| 2026-05-06 09:38 | 41.50776 | -5.57636 | 30375 ft | 443 kts | 294° |
| 2026-05-06 09:39 | 41.52096 | -5.61357 | 30637 ft | 443 kts | 294° |
| 2026-05-06 09:39 | 41.53425 | -5.65078 | 30845 ft | 445 kts | 295° |
| 2026-05-06 09:39 | 41.54866 | -5.68744 | 31063 ft | 447 kts | 298° |
| 2026-05-06 09:39 | 41.56450 | -5.72328 | 31265 ft | 448 kts | 301° |
| 2026-05-06 09:40 | 41.58172 | -5.75816 | 31488 ft | 450 kts | 303° |
| 2026-05-06 09:40 | 41.60003 | -5.79150 | 31685 ft | 452 kts | 306° |
| 2026-05-06 09:40 | 41.64035 | -5.85638 | 31994 ft | 454 kts | 308° |
| 2026-05-06 09:41 | 41.67847 | -5.92365 | 32011 ft | 453 kts | 304° |
| 2026-05-06 09:41 | 41.71464 | -5.99278 | 31997 ft | 453 kts | 304° |
| 2026-05-06 09:42 | 41.75036 | -6.06168 | 31998 ft | 453 kts | 303° |
| 2026-05-06 09:42 | 41.78633 | -6.13125 | 32004 ft | 454 kts | 303° |
| 2026-05-06 09:43 | 41.82234 | -6.20104 | 32020 ft | 455 kts | 303° |
| 2026-05-06 09:43 | 41.85823 | -6.27079 | 32001 ft | 454 kts | 304° |
| 2026-05-06 09:44 | 41.89390 | -6.34020 | 31997 ft | 454 kts | 304° |
| 2026-05-06 09:44 | 41.92972 | -6.41010 | 32002 ft | 454 kts | 304° |
| 2026-05-06 09:45 | 41.96552 | -6.48016 | 31988 ft | 454 kts | 303° |
| 2026-05-06 09:45 | 42.00128 | -6.55028 | 32014 ft | 456 kts | 303° |
| 2026-05-06 09:46 | 42.03689 | -6.62032 | 32009 ft | 456 kts | 304° |
| 2026-05-06 09:46 | 42.07270 | -6.69088 | 32013 ft | 456 kts | 303° |
| 2026-05-06 09:47 | 42.10844 | -6.76146 | 32012 ft | 456 kts | 303° |
| 2026-05-06 09:47 | 42.14419 | -6.83224 | 32009 ft | 456 kts | 303° |
| 2026-05-06 09:48 | 42.17989 | -6.90310 | 32028 ft | 457 kts | 303° |
| 2026-05-06 09:48 | 42.21535 | -6.97366 | 32022 ft | 457 kts | 303° |
| 2026-05-06 09:49 | 42.25105 | -7.04482 | 32025 ft | 457 kts | 303° |
| 2026-05-06 09:49 | 42.28674 | -7.11614 | 32023 ft | 457 kts | 303° |
| 2026-05-06 09:50 | 42.32227 | -7.18731 | 32034 ft | 457 kts | 303° |
| 2026-05-06 09:50 | 42.35757 | -7.25821 | 32035 ft | 458 kts | 303° |
| 2026-05-06 09:51 | 42.39318 | -7.32991 | 32044 ft | 459 kts | 303° |